Terminal Aerodrome Forecast
Issued by NWS

Home | Current Version | Previous Version | Text Only | Print | Product List | Glossary On
Versions: 1 2 3 4 5 6 7 8 9 10 11 12
000
FTUS46 KSGX 070544 RRA
TAFSNA
TAF
KSNA 070544Z 0706/0806 VRB05KT P6SM SCT030 OVC050
     FM071100 18009KT P6SM VCSH BKN025 OVC050
     FM071700 21014G22KT P6SM VCSH SCT025 BKN050=

USA.gov is the U.S. government's official web portal to all federal, state and local government web resources and services.